Latest Weather Observations for Maria Island

IDT60801

Issued at 4:01 pm EDT Friday 27 March 2015 (issued every 30 minutes, with the page automatically refreshed every 10 minutes)

About weather observations | Map of weather stations | Latest weather observations for TAS | Other Formats
Station Details ID: 092124 Name: MARIA ISLAND (POINT LESUEUR) Lat: -42.66 Lon: 148.02 Height: 28.0 m
Data from the previous 72 hours. | See also: Recent months at Maria Island
Date/Time
EDT
Temp
°C
App
Temp
°C
Dew
Point
Rel
Hum
%
Delta-T
°C
Wind Press
QNH
hPa
Press
MSL
hPa
Rain
since 9 am
mm
Dir
 
Spd
km/h
Gust
km/h
Spd
kts
Gust
kts
27/04:00pm 15.0 7.2 11.8 81 1.7 SSW 44 54 24 29 1013.8 1013.7 3.2
27/03:30pm 14.7 6.4 11.5 81 1.7 SSW 46 54 25 29 1013.4 1013.3 3.2
27/03:00pm 14.6 6.8 11.9 84 1.5 SSW 44 57 24 31 1013.2 1013.1 3.2
27/02:30pm 15.3 7.3 10.3 72 2.6 S 43 52 23 28 1012.6 1012.5 3.2
27/02:00pm 14.5 5.7 9.7 73 2.5 S 46 57 25 31 1012.0 1011.9 3.2
27/01:42pm 14.4 4.8 9.4 72 2.6 S 50 59 27 32 1011.9 1011.8 3.2
27/01:30pm 14.3 6.1 11.6 84 1.4 SSW 46 54 25 29 1011.8 1011.7 3.2
27/01:00pm 13.6 4.9 11.3 86 1.2 SSW 48 63 26 34 1011.6 1011.5 3.0
27/12:30pm 13.3 3.8 11.0 86 1.2 SSW 52 61 28 33 1011.3 1011.2 3.0
27/12:00pm 13.3 5.5 11.0 86 1.2 SW 43 50 23 27 1011.2 1011.1 3.0
27/11:30am 12.8 5.5 10.3 85 1.3 SW 39 46 21 25 1011.1 1011.0 3.0
27/11:00am 12.0 5.8 9.9 87 1.1 SW 33 41 18 22 1011.0 1010.9 3.0
27/10:40am 11.9 5.8 9.8 87 1.1 SW 32 48 17 26 1010.9 1010.8 2.6
27/10:30am 11.4 7.6 9.0 85 1.2 SW 19 26 10 14 1011.0 1010.9 2.4
27/10:00am 10.4 7.6 8.5 88 0.9 W 13 17 7 9 1010.8 1010.7 1.8
27/09:30am 10.1 6.0 8.0 87 1.0 WNW 19 24 10 13 1010.5 1010.4 1.0
27/09:00am 10.5 6.4 7.7 83 1.4 W 19 24 10 13 1010.2 1010.1 2.6
27/08:30am 10.4 6.9 7.3 81 1.5 W 15 20 8 11 1010.1 1010.0 2.4
27/08:00am 10.3 6.4 7.2 81 1.5 WNW 17 20 9 11 1009.9 1009.8 2.4
27/07:30am 10.8 7.2 6.7 76 1.9 WSW 15 22 8 12 1009.6 1009.5 2.0
27/07:00am 11.7 8.6 5.6 66 2.8 WSW 11 19 6 10 1009.3 1009.2 1.8
27/06:30am 11.3 8.7 6.0 70 2.5 WNW 9 13 5 7 1009.1 1009.0 1.8
27/05:30am 11.3 8.7 6.2 71 2.4 WNW 9 15 5 8 1008.9 1008.8 1.8
27/05:00am 11.2 8.3 6.3 72 2.3 WNW 11 13 6 7 1008.9 1008.8 1.8
27/04:30am 11.7 9.1 6.0 68 2.7 WNW 9 20 5 11 1008.9 1008.8 1.8
27/04:00am 11.9 5.9 7.2 73 2.3 SW 28 33 15 18 1009.0 1008.9 1.8
27/03:30am 11.5 8.1 7.8 78 1.8 WSW 15 19 8 10 1009.4 1009.3 1.8
27/03:00am 11.5 9.7 7.8 78 1.8 WSW 7 11 4 6 1010.0 1009.9 1.8
27/02:30am 11.4 9.0 8.6 83 1.4 WSW 11 15 6 8 1009.9 1009.8 1.8
27/02:00am 11.0 7.8 8.6 85 1.2 W 15 19 8 10 1010.1 1010.0 1.8
27/01:30am 10.5 7.3 8.4 87 1.0 W 15 19 8 10 1010.2 1010.1 1.8
27/01:00am 10.9 8.8 8.3 84 1.3 WNW 9 11 5 6 1010.4 1010.3 1.8
27/12:30am 11.2 9.0 7.7 79 1.7 W 9 13 5 7 1010.6 1010.5 1.8
27/12:00am 11.4 9.4 6.9 74 2.1 SW 7 13 4 7 1010.6 1010.5 1.8
 
Date/Time
EDT
Temp
°C
App
Temp
°C
Dew
Point
Rel
Hum
%
Delta-T
°C
Wind Press
QNH
hPa
Press
MSL
hPa
Rain
since 9 am
mm
Dir
 
Spd
km/h
Gust
km/h
Spd
kts
Gust
kts
26/11:30pm 10.9 8.2 7.4 79 1.7 WNW 11 13 6 7 1010.5 1010.4 1.8
26/11:00pm 11.5 8.0 7.4 76 2.0 WNW 15 17 8 9 1010.4 1010.3 1.8
26/10:30pm 12.0 10.4 6.3 68 2.7 W 4 9 2 5 1010.5 1010.4 1.8
26/10:00pm 11.9 7.9 6.8 71 2.4 SSW 17 20 9 11 1011.0 1010.9 1.8
26/09:30pm 12.1 6.6 7.4 73 2.3 SSW 26 32 14 17 1010.9 1010.8 1.8
26/09:00pm 12.6 7.2 8.1 74 2.2 SSW 26 32 14 17 1010.8 1010.7 1.8
26/08:30pm 12.9 7.7 7.4 69 2.7 WSW 24 33 13 18 1010.5 1010.4 1.8
26/08:00pm 13.6 8.1 7.4 66 3.0 W 26 32 14 17 1009.9 1009.8 1.8
26/07:30pm 13.8 9.5 7.8 67 3.0 NW 20 26 11 14 1009.7 1009.6 1.8
26/07:00pm 14.1 9.8 6.9 62 3.5 NNW 19 22 10 12 1009.5 1009.4 1.8
26/06:30pm 14.5 10.3 7.5 63 3.5 NNW 19 20 10 11 1009.4 1009.3 1.8
26/06:00pm 14.5 10.8 7.8 64 3.3 NNW 17 19 9 10 1009.0 1008.9 1.8
26/05:30pm 14.6 11.9 8.8 68 2.9 NNW 13 17 7 9 1009.1 1009.0 1.8
26/05:00pm 14.1 12.5 8.9 71 2.6 NNE 7 15 4 8 1009.3 1009.2 1.8
26/04:30pm 15.2 12.7 8.0 62 3.6 N 11 13 6 7 1009.5 1009.4 1.6
26/04:00pm 15.2 11.0 7.5 60 3.8 N 19 20 10 11 1009.6 1009.5 1.6
26/03:30pm 15.0 10.4 8.0 63 3.5 N 22 28 12 15 1009.8 1009.7 1.6
26/03:00pm 14.8 9.8 9.6 71 2.7 N 26 30 14 16 1009.8 1009.7 1.6
26/02:30pm 16.2 11.8 10.5 69 3.0 N 24 32 13 17 1009.8 1009.7 1.6
26/02:00pm 15.9 12.1 8.9 63 3.6 NNW 19 26 10 14 1010.1 1010.0 1.6
26/01:30pm 15.4 11.1 9.5 68 3.1 N 22 26 12 14 1010.5 1010.4 1.6
26/01:00pm 14.6 12.2 10.2 75 2.3 N 13 17 7 9 1010.8 1010.7 1.6
26/12:30pm 14.4 12.9 10.4 77 2.1 NNE 9 15 5 8 1011.0 1010.9 1.6
26/12:00pm 14.0 12.0 10.2 78 2.0 N 11 15 6 8 1011.3 1011.2 1.6
26/11:30am 13.6 11.8 10.8 83 1.5 NNW 11 17 6 9 1011.3 1011.2 1.6
26/11:00am 13.2 10.6 10.6 84 1.4 NNW 15 17 8 9 1011.3 1011.2 1.6
26/10:30am 12.0 7.8 9.7 86 1.2 N 22 30 12 16 1011.5 1011.4 1.6
26/10:00am 12.0 10.8 10.2 89 0.9 NNE 7 11 4 6 1011.2 1011.1 1.6
26/09:30am 11.5 10.4 9.8 89 0.9 WNW 6 7 3 4 1010.8 1010.7 1.2
26/09:00am 11.5 9.1 10.2 92 0.7 NW 13 17 7 9 1011.0 1010.9 16.4
26/08:30am 11.3 9.8 10.5 95 0.4 W 9 13 5 7 1011.0 1010.9 14.2
26/08:00am 11.7 7.4 10.6 93 0.6 WNW 24 44 13 24 1010.4 1010.3 7.4
26/07:55am 12.5 10.0 11.1 91 0.7 SSW 15 39 8 21 1010.5 1010.4 5.4
26/07:30am 12.5 11.2 10.0 85 1.3 SE 7 9 4 5 1010.6 1010.5 1.2
26/07:00am 12.7 9.8 9.7 82 1.5 ESE 15 17 8 9 1011.0 1010.9 0.0
26/06:30am 11.9 10.3 8.9 82 1.5 ESE 7 13 4 7 1011.3 1011.2 0.0
26/06:00am 11.8 11.3 9.2 84 1.3 SW 2 4 1 2 1011.9 1011.8 0.0
26/05:30am 11.9 11.3 8.9 82 1.5 NNW 2 7 1 4 1012.4 1012.3 0.0
26/05:00am 10.9 10.4 8.0 82 1.4 CALM 0 2 0 1 1012.6 1012.5 0.0
26/04:30am 12.0 10.4 8.1 77 1.9 WNW 6 9 3 5 1012.8 1012.7 0.0
26/04:00am 12.3 10.7 8.2 76 2.0 WNW 6 9 3 5 1013.1 1013.0 0.0
26/03:30am 12.6 10.5 8.3 75 2.1 NW 9 13 5 7 1013.3 1013.2 0.0
26/03:00am 13.0 10.4 7.9 71 2.5 NNW 11 15 6 8 1013.5 1013.4 0.0
26/02:30am 13.5 10.7 8.4 71 2.5 N 13 15 7 8 1013.7 1013.6 0.0
26/02:00am 13.4 9.6 7.4 67 2.9 NNW 17 19 9 10 1014.0 1013.9 0.0
26/01:30am 13.8 8.7 7.8 67 3.0 NW 24 28 13 15 1014.2 1014.1 0.0
26/01:00am 14.2 10.1 8.6 69 2.8 NW 20 24 11 13 1014.2 1014.1 0.0
26/12:30am 14.3 10.7 9.9 75 2.3 NNW 19 22 10 12 1014.2 1014.1 0.0
26/12:00am 14.8 12.0 11.2 79 1.9 NNW 17 20 9 11 1014.2 1014.1 0.0
 
Date/Time
EDT
Temp
°C
App
Temp
°C
Dew
Point
Rel
Hum
%
Delta-T
°C
Wind Press
QNH
hPa
Press
MSL
hPa
Rain
since 9 am
mm
Dir
 
Spd
km/h
Gust
km/h
Spd
kts
Gust
kts
25/11:30pm 15.2 11.8 11.4 78 2.0 NNE 20 26 11 14 1014.2 1014.1 0.0
25/11:00pm 15.3 10.8 11.3 77 2.1 NNE 26 30 14 16 1014.1 1014.0 0.0
25/10:30pm 15.2 11.5 11.4 78 2.0 N 22 28 12 15 1014.2 1014.1 0.0
25/10:00pm 15.1 13.1 10.1 72 2.6 NE 11 19 6 10 1014.4 1014.3 0.0
25/09:30pm 14.7 13.8 9.3 70 2.8 ENE 4 6 2 3 1014.2 1014.1 0.0
25/09:00pm 14.1 12.7 8.9 71 2.6 E 6 7 3 4 1014.1 1014.0 0.0
25/08:30pm 13.9 12.3 8.7 71 2.6 ENE 7 11 4 6 1014.2 1014.1 0.0
25/08:00pm 14.1 12.5 8.9 71 2.6 NNE 7 11 4 6 1014.0 1013.9 0.0
25/07:30pm 14.1 11.3 8.5 69 2.8 NE 13 17 7 9 1013.7 1013.6 0.0
25/07:00pm 15.0 12.2 8.7 66 3.2 NE 13 19 7 10 1013.6 1013.5 0.0
25/06:30pm 15.3 11.9 9.0 66 3.2 NNE 17 20 9 11 1013.4 1013.3 0.0
25/06:00pm 15.4 11.2 8.4 63 3.5 NNE 20 26 11 14 1012.9 1012.8 0.0
25/05:30pm 16.1 12.2 8.6 61 3.8 NNE 19 22 10 12 1012.5 1012.4 0.0
25/05:00pm 16.6 12.4 7.5 55 4.6 NNE 19 22 10 12 1012.5 1012.4 0.0
25/04:30pm 16.7 12.4 7.1 53 4.8 NNE 19 24 10 13 1012.5 1012.4 0.0
25/04:00pm 17.2 13.0 8.1 55 4.6 NNE 20 26 11 14 1012.6 1012.5 0.0
25/03:30pm 17.1 12.8 6.9 51 5.1 N 19 22 10 12 1013.0 1012.9 0.0
25/03:00pm 17.4 12.9 6.9 50 5.2 N 20 22 11 12 1012.9 1012.8 0.0
25/02:30pm 17.3 12.1 7.4 52 5.0 N 24 30 13 16 1013.3 1013.2 0.0
25/02:00pm 17.1 11.9 7.2 52 4.9 N 24 30 13 16 1013.7 1013.6 0.0
25/01:30pm 16.7 11.6 5.9 49 5.2 N 22 28 12 15 1014.1 1014.0 0.0
25/01:00pm 16.7 11.6 5.9 49 5.2 N 22 26 12 14 1014.5 1014.4 0.0
25/12:30pm 16.3 12.9 5.9 50 5.0 N 13 20 7 11 1014.9 1014.8 0.0
25/12:00pm 15.9 13.6 5.5 50 5.0 WNW 7 9 4 5 1015.2 1015.1 0.0
25/11:30am 15.4 13.3 5.6 52 4.7 NW 6 11 3 6 1015.3 1015.2 0.0
25/11:00am 15.1 12.4 5.6 53 4.5 NNW 9 17 5 9 1015.5 1015.5 0.0
25/10:30am 15.1 11.9 6.7 57 4.1 NW 13 17 7 9 1015.5 1015.5 0.0
25/10:00am 14.0 9.9 6.1 59 3.8 NNW 17 19 9 10 1015.5 1015.5 0.0
25/09:30am 13.8 9.5 5.4 57 3.9 NW 17 19 9 10 1015.4 1015.4 0.0
25/09:00am 12.1 8.1 6.6 69 2.6 NW 17 20 9 11 1015.3 1015.2 0.0
25/08:30am 11.4 7.7 6.5 72 2.3 WNW 15 19 8 10 1015.5 1015.5 0.0
25/08:00am 10.8 7.5 6.6 75 2.0 NW 13 15 7 8 1015.4 1015.4 0.0
25/07:30am 11.0 7.8 4.9 66 2.8 NW 11 15 6 8 1015.4 1015.4 0.0
25/07:00am 11.3 8.3 5.8 69 2.6 NW 11 15 6 8 1015.4 1015.4 0.0
25/06:30am 11.8 9.1 5.4 65 3.0 WNW 9 11 5 6 1015.2 1015.1 0.0
25/06:00am 11.7 9.4 4.9 63 3.1 NNW 6 11 3 6 1014.9 1014.8 0.0
25/05:30am 11.4 9.4 4.6 63 3.1 WNW 4 7 2 4 1015.0 1014.9 0.0
25/05:00am 11.4 8.7 3.9 60 3.3 NW 7 11 4 6 1015.1 1015.0 0.0
25/04:30am 11.4 8.4 3.9 60 3.3 WNW 9 11 5 6 1015.2 1015.1 0.0
25/04:00am 11.6 7.5 4.3 61 3.3 W 15 22 8 12 1015.4 1015.4 0.0
25/03:30am 11.6 7.9 4.6 62 3.2 W 13 15 7 8 1015.4 1015.4 0.0
25/03:00am 11.4 8.8 4.4 62 3.2 W 7 13 4 7 1015.7 1015.7 0.0
25/02:30am 11.4 7.7 4.4 62 3.2 WNW 13 19 7 10 1015.7 1015.7 0.0
25/02:00am 11.6 8.0 4.8 63 3.1 WNW 13 17 7 9 1015.7 1015.7 0.0
25/01:30am 11.7 7.0 5.1 64 3.0 W 19 24 10 13 1015.8 1015.8 0.0
25/01:00am 11.5 6.9 5.6 67 2.7 W 19 22 10 12 1015.7 1015.7 0.0
25/12:30am 12.0 7.7 5.2 63 3.1 W 17 20 9 11 1016.1 1016.1 0.0
25/12:00am 12.2 7.6 6.3 67 2.8 W 20 24 11 13 1016.5 1016.5 0.0
 
Date/Time
EDT
Temp
°C
App
Temp
°C
Dew
Point
Rel
Hum
%
Delta-T
°C
Wind Press
QNH
hPa
Press
MSL
hPa
Rain
since 9 am
mm
Dir
 
Spd
km/h
Gust
km/h
Spd
kts
Gust
kts
24/11:30pm 12.3 8.8 7.2 71 2.5 W 15 17 8 9 1016.7 1016.7 0.0
24/11:00pm 12.1 9.4 7.2 72 2.4 WNW 11 13 6 7 1017.1 1017.1 0.0
24/10:30pm 12.3 10.3 7.2 71 2.5 NW 7 11 4 6 1017.1 1017.1 0.0
24/10:00pm 12.3 10.4 7.6 73 2.3 NW 7 9 4 5 1017.4 1017.4 0.0
24/09:30pm 12.1 9.5 7.6 74 2.2 WNW 11 13 6 7 1017.5 1017.5 0.0
24/09:00pm 11.8 9.9 6.7 71 2.4 N 6 9 3 5 1017.4 1017.4 0.0
24/08:30pm 11.7 10.4 6.2 69 2.6 N 2 4 1 2 1017.2 1017.2 0.0
24/08:00pm 11.8 10.1 6.1 68 2.7 NNE 4 6 2 3 1016.9 1016.9 0.0
24/07:30pm 12.4 10.2 5.1 61 3.4 ENE 6 6 3 3 1016.7 1016.7 0.0
24/07:00pm 12.7 10.2 4.9 59 3.6 ENE 7 9 4 5 1016.4 1016.4 0.0
24/06:30pm 13.2 10.3 4.6 56 4.0 E 9 13 5 7 1016.1 1016.1 0.0
24/06:00pm 13.6 10.4 5.0 56 4.0 E 11 15 6 8 1015.8 1015.8 0.0
24/05:30pm 14.3 11.2 5.7 56 4.1 E 11 15 6 8 1015.7 1015.7 0.0
24/05:00pm 14.0 10.4 4.9 54 4.2 E 13 19 7 10 1015.4 1015.4 0.0
24/04:30pm 14.4 10.4 5.0 53 4.4 E 15 20 8 11 1015.5 1015.5 0.0

Other Formats:

Comma delimited format used in spreadsheet applications
http://www.bom.gov.au/fwo/IDT60801/IDT60801.95988.axf

JavaScript Object Notation format (JSON) in row-major order
http://www.bom.gov.au/fwo/IDT60801/IDT60801.95988.json